createdAt,value
2023-02-15T00:01:26.295Z,22.60
2023-02-15T00:03:54.663Z,22.97
2023-02-15T00:06:21.884Z,21.47
2023-02-15T00:08:49.052Z,22.17
2023-02-15T00:11:17.421Z,21.33
2023-02-15T00:13:44.448Z,21.43
2023-02-15T00:16:13.155Z,22.87
2023-02-15T00:18:40.372Z,21.13
2023-02-15T00:21:10.713Z,23.33
2023-02-15T00:23:37.942Z,21.73
2023-02-15T00:26:06.868Z,20.67
2023-02-15T00:28:34.078Z,21.93
2023-02-15T00:31:05.365Z,20.63
2023-02-15T00:33:32.592Z,21.00
2023-02-15T00:35:59.968Z,19.73
2023-02-15T00:38:29.886Z,21.50
2023-02-15T00:40:58.238Z,20.37
2023-02-15T00:43:25.321Z,20.40
2023-02-15T00:45:52.684Z,19.23
2023-02-15T00:48:19.944Z,20.37
2023-02-15T00:50:47.318Z,21.63
2023-02-15T00:53:14.346Z,23.40
2023-02-15T00:55:42.657Z,19.93
2023-02-15T00:58:10.048Z,21.80
2023-02-15T01:00:37.883Z,21.70
2023-02-15T01:03:05.045Z,21.53
2023-02-15T01:05:33.240Z,19.67
2023-02-15T01:08:00.717Z,21.77
2023-02-15T01:10:28.558Z,21.17
2023-02-15T01:12:57.688Z,20.73
2023-02-15T01:15:25.258Z,22.87
2023-02-15T01:17:53.695Z,21.03
2023-02-15T01:20:21.694Z,22.47
2023-02-15T01:22:50.643Z,21.67
2023-02-15T01:25:17.871Z,20.43
2023-02-15T01:27:44.963Z,20.20
2023-02-15T01:30:14.763Z,20.30
2023-02-15T01:32:42.230Z,20.33
2023-02-15T01:35:09.492Z,20.37
2023-02-15T01:37:36.610Z,20.23
2023-02-15T01:40:06.654Z,20.20
2023-02-15T01:42:33.521Z,20.30
2023-02-15T01:45:02.311Z,21.87
2023-02-15T01:47:37.217Z,21.30
2023-02-15T01:50:10.896Z,20.20
2023-02-15T01:52:40.115Z,21.43
2023-02-15T01:55:09.182Z,21.13
2023-02-15T01:57:36.726Z,21.00
2023-02-15T02:00:07.060Z,21.37
2023-02-15T02:02:35.882Z,19.53
2023-02-15T02:05:07.402Z,20.20
2023-02-15T02:07:39.076Z,19.50
2023-02-15T02:10:08.390Z,20.63
2023-02-15T02:12:38.048Z,19.20
2023-02-15T02:15:05.635Z,19.67
2023-02-15T02:17:43.710Z,20.30
2023-02-15T02:20:37.242Z,20.43
2023-02-15T02:23:23.964Z,19.70
2023-02-15T02:26:32.949Z,20.13
2023-02-15T02:29:26.600Z,19.43
2023-02-15T02:32:22.922Z,19.63
2023-02-15T02:34:54.318Z,20.57
2023-02-15T02:37:28.911Z,21.10
2023-02-15T02:40:04.758Z,21.53
2023-02-15T02:42:40.022Z,21.97
2023-02-15T02:45:10.444Z,20.13
2023-02-15T02:47:41.374Z,22.20
2023-02-15T02:50:13.498Z,21.33
2023-02-15T02:52:42.833Z,22.40
2023-02-15T02:55:14.146Z,20.93
2023-02-15T02:57:52.515Z,19.97
2023-02-15T03:00:20.262Z,21.63
2023-02-15T03:02:49.925Z,22.23
2023-02-15T03:05:22.877Z,22.60
2023-02-15T03:07:52.884Z,22.20
2023-02-15T03:10:24.027Z,21.70
2023-02-15T03:12:52.688Z,23.60
2023-02-15T03:15:23.588Z,21.33
2023-02-15T03:17:56.579Z,22.40
2023-02-15T03:20:29.569Z,23.37
2023-02-15T03:23:00.829Z,22.00
2023-02-15T03:25:33.471Z,21.97
2023-02-15T03:28:03.171Z,21.67
2023-02-15T03:30:32.076Z,22.13
2023-02-15T03:33:00.966Z,23.60
2023-02-15T03:35:37.007Z,24.43
2023-02-15T03:38:09.262Z,22.90
2023-02-15T03:40:58.577Z,22.37
2023-02-15T03:43:31.477Z,22.90
2023-02-15T03:46:05.397Z,23.90
2023-02-15T03:48:35.948Z,24.10
2023-02-15T03:51:27.117Z,25.07
2023-02-15T03:53:55.455Z,23.57
2023-02-15T03:56:22.337Z,23.37
2023-02-15T03:59:07.679Z,23.80
2023-02-15T04:01:56.981Z,24.30
2023-02-15T04:04:26.165Z,23.87
2023-02-15T04:06:54.361Z,24.37
2023-02-15T04:09:39.683Z,23.60
2023-02-15T04:12:06.557Z,24.17
2023-02-15T04:14:51.974Z,23.47
2023-02-15T04:17:19.204Z,23.17
2023-02-15T04:20:04.637Z,22.67
2023-02-15T04:22:51.572Z,23.97
2023-02-15T04:25:18.643Z,21.80
2023-02-15T04:27:47.881Z,23.87
2023-02-15T04:30:15.956Z,23.23
2023-02-15T04:32:43.120Z,23.50
2023-02-15T04:35:10.480Z,23.53
2023-02-15T04:37:39.287Z,22.60
2023-02-15T04:40:07.939Z,23.90
2023-02-15T04:42:34.883Z,23.87
2023-02-15T04:45:01.764Z,24.27
2023-02-15T04:47:28.725Z,24.07
2023-02-15T04:49:58.011Z,24.80
2023-02-15T04:52:25.329Z,24.47
2023-02-15T04:54:53.529Z,23.60
2023-02-15T04:57:20.380Z,24.07
2023-02-15T04:59:47.286Z,24.67
2023-02-15T05:02:14.334Z,26.53
2023-02-15T05:04:41.184Z,25.53
2023-02-15T05:07:08.050Z,24.63
2023-02-15T05:09:34.967Z,26.57
2023-02-15T05:12:03.178Z,26.00
2023-02-15T05:14:30.039Z,24.73
2023-02-15T05:16:57.035Z,27.00
2023-02-15T05:19:25.451Z,25.40
2023-02-15T05:21:52.352Z,23.57
2023-02-15T05:24:37.965Z,24.40
2023-02-15T05:27:24.628Z,25.07
2023-02-15T05:29:51.752Z,23.37
2023-02-15T05:32:18.812Z,23.70
2023-02-15T05:34:45.705Z,25.70
2023-02-15T05:37:12.592Z,23.47
2023-02-15T05:39:39.545Z,26.47
2023-02-15T05:42:07.813Z,24.57
2023-02-15T05:44:34.740Z,23.70
2023-02-15T05:47:03.822Z,22.23
2023-02-15T05:49:31.494Z,23.53
2023-02-15T05:51:58.351Z,23.40
2023-02-15T05:54:25.189Z,25.73
2023-02-15T05:56:52.077Z,26.10
2023-02-15T05:59:20.288Z,24.00
2023-02-15T06:01:47.114Z,25.90
2023-02-15T06:04:14.211Z,24.83
2023-02-15T06:06:41.097Z,23.53
2023-02-15T06:09:08.058Z,24.33
2023-02-15T06:11:34.869Z,24.83
2023-02-15T06:14:01.757Z,23.67
2023-02-15T06:16:30.072Z,24.47
2023-02-15T06:18:57.502Z,21.10
2023-02-15T06:21:24.389Z,21.23
2023-02-15T06:23:51.272Z,23.77
2023-02-15T06:26:18.145Z,23.97
2023-02-15T06:28:45.078Z,22.90
2023-02-15T06:31:11.970Z,22.63
2023-02-15T06:33:40.269Z,23.73
2023-02-15T06:36:07.443Z,23.93
2023-02-15T06:38:34.469Z,24.67
2023-02-15T06:41:01.421Z,27.23
2023-02-15T06:43:28.239Z,25.23
2023-02-15T06:45:57.967Z,23.53
2023-02-15T06:48:24.840Z,24.57
2023-02-15T06:50:53.085Z,26.57
2023-02-15T06:53:19.931Z,25.87
2023-02-15T06:55:46.829Z,25.43
2023-02-15T06:58:13.688Z,28.67
2023-02-15T07:00:40.598Z,25.67
2023-02-15T07:03:07.527Z,26.33
2023-02-15T07:05:35.234Z,26.83
2023-02-15T07:08:03.904Z,28.00
2023-02-15T07:10:30.824Z,27.33
2023-02-15T07:12:57.736Z,26.73
2023-02-15T07:15:24.732Z,25.00
2023-02-15T07:17:52.042Z,26.87
2023-02-15T07:20:20.913Z,26.10
2023-02-15T07:22:48.006Z,27.67
2023-02-15T07:25:17.019Z,26.70
2023-02-15T07:27:45.556Z,24.17
2023-02-15T07:30:15.111Z,27.67
2023-02-15T07:33:04.738Z,27.17
2023-02-15T07:35:32.008Z,27.83
2023-02-15T07:37:58.837Z,27.67
2023-02-15T07:40:32.470Z,28.23
2023-02-15T07:43:00.023Z,26.97
2023-02-15T07:45:27.159Z,29.40
2023-02-15T07:47:54.041Z,27.90
2023-02-15T07:50:20.968Z,24.07
2023-02-15T07:52:47.812Z,27.23
2023-02-15T07:55:14.950Z,28.73
2023-02-15T07:57:45.482Z,23.97
2023-02-15T08:00:14.193Z,29.07
2023-02-15T08:02:41.158Z,23.27
2023-02-15T08:05:08.700Z,23.33
2023-02-15T08:07:35.612Z,24.00
2023-02-15T08:10:02.584Z,25.90
2023-02-15T08:12:29.865Z,24.33
2023-02-15T08:14:58.074Z,22.77
2023-02-15T08:17:24.988Z,21.30
2023-02-15T08:19:51.847Z,21.83
2023-02-15T08:22:18.718Z,21.67
2023-02-15T08:24:45.839Z,21.93
2023-02-15T08:27:13.015Z,21.33
2023-02-15T08:29:40.477Z,19.47
2023-02-15T08:32:11.275Z,19.97
2023-02-15T08:34:40.717Z,20.27
2023-02-15T08:37:07.849Z,19.27
2023-02-15T08:39:34.986Z,18.00
2023-02-15T08:42:01.874Z,18.93
2023-02-15T08:44:28.882Z,20.13
2023-02-15T08:46:55.825Z,18.13
2023-02-15T08:49:24.996Z,19.23
2023-02-15T08:51:51.824Z,18.80
2023-02-15T08:54:21.094Z,17.83
2023-02-15T08:56:48.089Z,20.13
2023-02-15T08:59:17.264Z,17.00
2023-02-15T09:01:44.781Z,17.17
2023-02-15T09:04:11.987Z,18.13
2023-02-15T09:06:41.286Z,16.07
2023-02-15T09:09:08.913Z,18.33
2023-02-15T09:11:37.522Z,17.40
2023-02-15T09:14:06.765Z,17.13
2023-02-15T09:16:35.961Z,18.87
2023-02-15T09:19:05.513Z,19.27
2023-02-15T09:21:33.691Z,18.57
2023-02-15T09:24:04.414Z,18.97
2023-02-15T09:26:32.741Z,18.87
2023-02-15T09:29:01.929Z,18.03
2023-02-15T09:31:30.550Z,18.70
2023-02-15T09:33:59.217Z,20.03
2023-02-15T09:36:28.589Z,20.27
2023-02-15T09:38:58.489Z,19.70
2023-02-15T09:42:11.266Z,20.73
2023-02-15T09:44:52.728Z,18.80
2023-02-15T09:47:45.017Z,20.23
2023-02-15T09:50:20.391Z,18.77
2023-02-15T09:53:06.990Z,18.23
2023-02-15T09:55:49.274Z,18.57
2023-02-15T09:58:26.666Z,19.27
2023-02-15T10:01:00.376Z,18.00
2023-02-15T10:03:40.046Z,18.63
2023-02-15T10:06:34.119Z,18.40
2023-02-15T10:09:20.234Z,17.70
2023-02-15T10:12:01.670Z,17.90
2023-02-15T10:14:53.881Z,17.47
2023-02-15T10:17:32.950Z,18.43
2023-02-15T10:20:15.034Z,18.07
2023-02-15T10:22:57.041Z,17.43
2023-02-15T10:25:32.942Z,19.27
2023-02-15T10:28:06.258Z,18.23
2023-02-15T10:30:43.202Z,18.50
2023-02-15T10:33:21.054Z,19.90
2023-02-15T10:35:57.251Z,21.20
2023-02-15T10:38:33.952Z,19.90
2023-02-15T10:41:13.494Z,19.07
2023-02-15T10:43:56.493Z,20.00
2023-02-15T10:46:46.976Z,17.60
2023-02-15T10:49:36.347Z,17.10
2023-02-15T10:52:20.402Z,15.00
2023-02-15T10:54:53.801Z,15.90
2023-02-15T10:57:28.695Z,15.80
2023-02-15T11:00:08.264Z,14.60
2023-02-15T11:02:53.166Z,13.83
2023-02-15T11:05:37.072Z,13.53
2023-02-15T11:08:08.228Z,15.43
2023-02-15T11:10:39.436Z,15.17
2023-02-15T11:13:12.579Z,13.77
2023-02-15T11:15:44.088Z,15.60
2023-02-15T11:18:15.271Z,15.57
2023-02-15T11:20:48.722Z,15.50
2023-02-15T11:23:17.497Z,16.37
2023-02-15T11:25:47.207Z,16.80
2023-02-15T11:28:22.606Z,15.60
2023-02-15T11:30:54.735Z,14.63
2023-02-15T11:33:27.447Z,15.90
2023-02-15T11:36:01.470Z,15.17
2023-02-15T11:38:33.037Z,16.20
2023-02-15T11:41:04.818Z,16.77
2023-02-15T11:43:38.783Z,15.53
2023-02-15T11:46:06.820Z,16.97
2023-02-15T11:48:35.199Z,16.23
2023-02-15T11:51:04.267Z,16.07
2023-02-15T11:53:34.617Z,16.27
2023-02-15T11:56:04.658Z,17.23
2023-02-15T11:58:38.795Z,17.40
2023-02-15T12:01:15.055Z,17.50
2023-02-15T12:03:47.715Z,16.53
2023-02-15T12:06:22.255Z,15.93
2023-02-15T12:08:54.920Z,17.37
2023-02-15T12:11:27.688Z,18.43
2023-02-15T12:13:59.817Z,18.47
2023-02-15T12:16:28.370Z,18.83
2023-02-15T12:18:58.650Z,18.93
2023-02-15T12:21:28.545Z,18.37
2023-02-15T12:23:58.610Z,19.23
2023-02-15T12:26:28.000Z,19.07
2023-02-15T12:28:58.822Z,21.17
2023-02-15T12:31:31.743Z,19.93
2023-02-15T12:34:04.419Z,21.20
2023-02-15T12:36:33.384Z,26.13
2023-02-15T12:39:20.390Z,19.27
2023-02-15T12:41:59.874Z,19.77
2023-02-15T12:44:29.797Z,20.33
2023-02-15T12:46:59.443Z,19.70
2023-02-15T12:49:29.239Z,21.47
2023-02-15T12:51:57.664Z,21.27
2023-02-15T12:54:35.328Z,21.33
2023-02-15T12:57:20.963Z,24.13
2023-02-15T12:59:52.484Z,23.63
2023-02-15T13:02:28.017Z,25.87
2023-02-15T13:04:57.774Z,25.87
2023-02-15T13:07:31.111Z,24.50
2023-02-15T13:09:58.819Z,25.73
2023-02-15T13:12:29.068Z,25.40
2023-02-15T13:14:57.256Z,25.10
2023-02-15T13:17:30.399Z,25.60
2023-02-15T13:20:02.805Z,24.47
2023-02-15T13:22:36.287Z,26.90
2023-02-15T13:25:13.187Z,25.87
2023-02-15T13:27:42.413Z,24.50
2023-02-15T13:30:23.076Z,24.77
2023-02-15T13:32:53.114Z,25.70
2023-02-15T13:35:22.827Z,26.47
2023-02-15T13:38:03.861Z,26.47
2023-02-15T13:40:37.920Z,25.30
2023-02-15T13:43:20.833Z,25.83
2023-02-15T13:45:59.349Z,23.93
2023-02-15T13:48:46.054Z,26.77
2023-02-15T13:51:22.809Z,24.33
2023-02-15T13:54:22.496Z,24.10
2023-02-15T13:56:58.230Z,27.20
2023-02-15T13:59:57.119Z,24.70
2023-02-15T14:03:00.986Z,27.80
2023-02-15T14:05:44.006Z,23.50
2023-02-15T14:08:25.168Z,22.53
2023-02-15T14:11:00.860Z,22.00
2023-02-15T14:13:56.128Z,24.13
2023-02-15T14:16:34.505Z,22.10
2023-02-15T14:19:12.820Z,22.90
2023-02-15T14:21:48.437Z,23.27
2023-02-15T14:24:28.204Z,24.53
2023-02-15T14:27:05.474Z,24.70
2023-02-15T14:29:47.414Z,24.90
2023-02-15T14:32:19.507Z,24.03
2023-02-15T14:34:51.466Z,21.63
2023-02-15T14:37:27.506Z,25.43
2023-02-15T14:40:21.314Z,23.83
2023-02-15T14:42:56.620Z,24.63
2023-02-15T14:45:33.274Z,22.27
2023-02-15T14:48:10.159Z,23.63
2023-02-15T14:50:44.788Z,24.00
2023-02-15T14:53:38.449Z,22.53
2023-02-15T14:56:28.462Z,23.20
2023-02-15T14:59:02.906Z,24.83
2023-02-15T15:01:32.944Z,25.17
2023-02-15T15:04:03.447Z,23.23
2023-02-15T15:06:32.744Z,23.00
2023-02-15T15:09:09.892Z,23.30
2023-02-15T15:11:46.674Z,26.07
2023-02-15T15:14:41.836Z,25.70
2023-02-15T15:17:13.270Z,24.27
2023-02-15T15:20:05.824Z,24.17
2023-02-15T15:22:34.620Z,23.60
2023-02-15T15:25:02.557Z,25.53
2023-02-15T15:27:46.562Z,25.00
2023-02-15T15:31:00.851Z,23.83
2023-02-15T15:34:17.900Z,23.80
2023-02-15T15:37:24.525Z,26.23
2023-02-15T15:40:39.404Z,24.83
2023-02-15T15:43:42.477Z,28.30
2023-02-15T15:46:37.945Z,27.03
2023-02-15T15:49:10.577Z,27.23
2023-02-15T15:51:41.843Z,27.40
2023-02-15T15:54:16.512Z,27.07
2023-02-15T15:56:47.343Z,28.37
2023-02-15T15:59:20.513Z,28.17
2023-02-15T16:01:47.941Z,30.03
2023-02-15T16:04:26.616Z,30.33
2023-02-15T16:06:54.397Z,30.63
2023-02-15T16:09:23.908Z,28.07
2023-02-15T16:11:53.271Z,32.53
2023-02-15T16:14:27.200Z,31.93
2023-02-15T16:16:57.041Z,32.80
2023-02-15T16:19:27.826Z,32.27
2023-02-15T16:21:56.431Z,32.10
2023-02-15T16:24:42.374Z,32.60
2023-02-15T16:27:29.642Z,34.67
2023-02-15T16:29:58.026Z,32.33
2023-02-15T16:32:27.150Z,31.97
2023-02-15T16:34:56.309Z,30.20
2023-02-15T16:37:28.234Z,29.80
2023-02-15T16:39:57.758Z,31.43
2023-02-15T16:42:24.988Z,31.87
2023-02-15T16:44:55.913Z,31.13
2023-02-15T16:47:27.181Z,29.57
2023-02-15T16:49:56.958Z,31.30
2023-02-15T16:52:26.177Z,31.53
2023-02-15T16:54:56.234Z,32.13
2023-02-15T16:57:26.370Z,31.57
2023-02-15T16:59:55.429Z,30.80
2023-02-15T17:02:53.253Z,29.50
2023-02-15T17:05:19.491Z,27.90
2023-02-15T17:08:03.769Z,29.00
2023-02-15T17:10:33.312Z,29.73
2023-02-15T17:13:04.736Z,29.90
2023-02-15T17:15:34.554Z,31.90
2023-02-15T17:18:06.607Z,28.30
2023-02-15T17:20:37.077Z,29.73
2023-02-15T17:23:05.424Z,30.17
2023-02-15T17:25:40.367Z,30.27
2023-02-15T17:28:17.953Z,30.53
2023-02-15T17:30:47.197Z,30.10
2023-02-15T17:33:26.582Z,30.00
2023-02-15T17:36:09.666Z,30.83
2023-02-15T17:38:37.532Z,29.10
2023-02-15T17:41:05.092Z,29.13
2023-02-15T17:43:32.474Z,25.27
2023-02-15T17:45:59.726Z,28.47
2023-02-15T17:48:32.310Z,28.57
2023-02-15T17:51:01.270Z,29.27
2023-02-15T17:53:28.546Z,27.10
2023-02-15T17:55:55.414Z,26.57
2023-02-15T17:58:22.896Z,26.73
2023-02-15T18:01:10.330Z,26.97
2023-02-15T18:04:02.698Z,27.60
2023-02-15T18:06:49.035Z,25.90
2023-02-15T18:09:37.267Z,25.70
2023-02-15T18:12:18.502Z,26.87
2023-02-15T18:14:45.314Z,26.50
2023-02-15T18:17:14.113Z,26.67
2023-02-15T18:19:43.909Z,29.47
2023-02-15T18:22:12.026Z,26.83
2023-02-15T18:24:38.995Z,27.23
2023-02-15T18:27:06.883Z,29.37
2023-02-15T18:29:33.801Z,27.50
2023-02-15T18:32:01.604Z,26.73
2023-02-15T18:34:32.002Z,25.40
2023-02-15T18:37:02.350Z,25.63
2023-02-15T18:39:38.386Z,25.97
2023-02-15T18:42:06.224Z,25.33
2023-02-15T18:44:33.441Z,27.50
2023-02-15T18:47:00.323Z,25.73
2023-02-15T18:49:27.421Z,24.73
2023-02-15T18:51:54.485Z,26.47
2023-02-15T18:54:24.927Z,25.57
2023-02-15T18:56:55.740Z,27.00
2023-02-15T18:59:24.103Z,25.63
2023-02-15T19:01:51.362Z,24.90
2023-02-15T19:04:18.499Z,25.57
2023-02-15T19:06:47.442Z,27.47
2023-02-15T19:09:17.187Z,28.20
2023-02-15T19:11:50.235Z,26.13
2023-02-15T19:14:25.234Z,27.40
2023-02-15T19:16:52.635Z,26.43
2023-02-15T19:19:19.905Z,28.63
2023-02-15T19:21:46.969Z,26.40
2023-02-15T19:24:18.311Z,27.10
2023-02-15T19:26:48.700Z,31.17
2023-02-15T19:29:21.917Z,27.93
2023-02-15T19:31:48.975Z,28.90
2023-02-15T19:34:18.000Z,28.57
2023-02-15T19:36:47.766Z,26.60
2023-02-15T19:39:25.568Z,29.20
2023-02-15T19:41:54.229Z,27.80
2023-02-15T19:44:21.716Z,29.07
2023-02-15T19:46:48.869Z,27.90
2023-02-15T19:49:15.924Z,27.07
2023-02-15T19:51:43.024Z,27.33
2023-02-15T19:54:37.184Z,35.40
2023-02-15T19:57:05.735Z,32.13
2023-02-15T19:59:34.222Z,30.57
2023-02-15T20:02:01.108Z,32.37
2023-02-15T20:04:28.460Z,31.77
2023-02-15T20:06:57.815Z,33.10
2023-02-15T20:09:28.838Z,32.50
2023-02-15T20:11:56.278Z,30.63
2023-02-15T20:14:24.833Z,31.90
2023-02-15T20:16:52.201Z,34.57
2023-02-15T20:19:19.270Z,32.43
2023-02-15T20:21:51.924Z,34.50
2023-02-15T20:24:21.572Z,35.67
2023-02-15T20:26:48.691Z,36.43
2023-02-15T20:29:16.758Z,36.47
2023-02-15T20:31:45.551Z,37.70
2023-02-15T20:34:12.657Z,35.77
2023-02-15T20:36:41.317Z,36.40
2023-02-15T20:39:15.533Z,34.20
2023-02-15T20:41:47.544Z,32.50
2023-02-15T20:44:23.046Z,31.67
2023-02-15T20:46:54.239Z,32.87
2023-02-15T20:49:21.884Z,30.77
2023-02-15T20:51:48.871Z,31.70
2023-02-15T20:54:18.162Z,32.43
2023-02-15T20:56:45.424Z,31.53
2023-02-15T20:59:26.378Z,33.27
2023-02-15T21:01:59.200Z,34.00
2023-02-15T21:04:31.908Z,33.67
2023-02-15T21:06:59.150Z,30.73
2023-02-15T21:09:26.080Z,31.60
2023-02-15T21:11:55.329Z,31.73
2023-02-15T21:14:25.767Z,31.33
2023-02-15T21:16:53.151Z,29.47
2023-02-15T21:19:23.411Z,31.07
2023-02-15T21:21:52.068Z,29.20
2023-02-15T21:24:23.193Z,31.43
2023-02-15T21:26:50.814Z,31.67
2023-02-15T21:29:18.487Z,31.97
2023-02-15T21:31:46.226Z,30.80
2023-02-15T21:34:13.855Z,30.53
2023-02-15T21:36:43.296Z,28.50
2023-02-15T21:39:15.771Z,29.27
2023-02-15T21:42:04.250Z,30.33
2023-02-15T21:44:50.148Z,29.80
2023-02-15T21:47:43.154Z,32.13
2023-02-15T21:50:30.796Z,31.10
2023-02-15T21:52:59.507Z,33.47
2023-02-15T21:55:26.522Z,32.63
2023-02-15T21:57:53.585Z,32.87
2023-02-15T22:00:22.501Z,30.60
2023-02-15T22:02:52.002Z,32.37
2023-02-15T22:05:20.908Z,32.13
2023-02-15T22:07:48.114Z,34.07
2023-02-15T22:10:17.466Z,33.53
2023-02-15T22:12:45.059Z,34.60
2023-02-15T22:15:19.565Z,36.50
2023-02-15T22:17:46.536Z,32.50
2023-02-15T22:20:15.629Z,34.80
2023-02-15T22:22:42.490Z,34.80
2023-02-15T22:25:13.408Z,35.20
2023-02-15T22:27:43.108Z,33.47
2023-02-15T22:30:20.330Z,32.87
2023-02-15T22:32:47.548Z,35.07
2023-02-15T22:35:18.115Z,33.73
2023-02-15T22:37:44.986Z,32.77
2023-02-15T22:40:15.751Z,35.07
2023-02-15T22:42:47.332Z,33.23
2023-02-15T22:45:18.312Z,32.50
2023-02-15T22:47:45.996Z,33.63
2023-02-15T22:50:19.323Z,34.07
2023-02-15T22:52:46.382Z,32.27
2023-02-15T22:55:16.001Z,32.83
2023-02-15T22:57:46.423Z,31.80
2023-02-15T23:00:18.378Z,30.50
2023-02-15T23:02:45.732Z,34.93
2023-02-15T23:05:20.526Z,34.10
2023-02-15T23:07:48.909Z,33.50
2023-02-15T23:10:22.541Z,32.67
2023-02-15T23:13:18.825Z,33.47
2023-02-15T23:15:51.285Z,34.60
2023-02-15T23:18:20.937Z,33.03
2023-02-15T23:20:50.449Z,34.97
2023-02-15T23:23:18.288Z,35.60
2023-02-15T23:25:45.191Z,35.37
2023-02-15T23:28:23.350Z,35.80
2023-02-15T23:30:50.657Z,35.97
2023-02-15T23:33:21.108Z,32.50
2023-02-15T23:35:48.596Z,37.65
2023-02-15T23:38:24.170Z,34.83
2023-02-15T23:41:13.756Z,34.90
2023-02-15T23:43:44.357Z,34.83
2023-02-15T23:46:23.083Z,33.17
2023-02-15T23:48:50.141Z,32.87
2023-02-15T23:51:17.422Z,35.33
2023-02-15T23:53:44.407Z,36.23
2023-02-15T23:56:13.332Z,37.03
2023-02-15T23:58:43.906Z,46.78
